createdAt,value
2018-03-01T00:01:51.747Z,65.22
2018-03-01T00:04:19.952Z,63.00
2018-03-01T00:06:48.129Z,51.92
2018-03-01T00:09:16.370Z,48.10
2018-03-01T00:11:44.558Z,64.25
2018-03-01T00:14:12.742Z,51.00
2018-03-01T00:16:40.979Z,55.45
2018-03-01T00:19:09.179Z,60.95
2018-03-01T00:21:37.362Z,56.58
2018-03-01T00:24:06.362Z,59.97
2018-03-01T00:26:34.562Z,54.75
2018-03-01T00:29:03.518Z,65.15
2018-03-01T00:31:31.704Z,51.22
2018-03-01T00:33:59.879Z,57.58
2018-03-01T00:36:28.062Z,60.75
2018-03-01T00:38:56.299Z,56.70
2018-03-01T01:25:06.826Z,62.25
2018-03-01T01:27:36.070Z,49.33
2018-03-01T01:30:04.270Z,52.50
2018-03-01T01:32:32.472Z,43.38
2018-03-01T01:35:01.439Z,41.83
2018-03-01T01:37:29.634Z,57.45
2018-03-01T01:39:57.815Z,50.15
2018-03-01T01:42:26.807Z,51.60
2018-03-01T01:44:55.755Z,46.55
2018-03-01T01:47:23.949Z,56.20
2018-03-01T01:49:52.146Z,52.60
2018-03-01T01:52:20.332Z,47.92
2018-03-01T01:54:48.530Z,45.50
2018-03-01T01:57:16.719Z,50.50
2018-03-01T01:59:44.901Z,52.65
2018-03-01T02:02:13.095Z,44.90
2018-03-01T02:04:41.306Z,49.10
2018-03-01T02:07:10.263Z,57.90
2018-03-01T02:09:38.450Z,60.25
2018-03-01T02:12:06.667Z,49.20
2018-03-01T02:14:34.884Z,51.55
2018-03-01T02:17:03.078Z,47.47
2018-03-01T02:19:31.278Z,56.17
2018-03-01T02:22:00.236Z,49.95
2018-03-01T02:24:28.424Z,45.72
2018-03-01T02:26:56.612Z,58.15
2018-03-01T02:29:25.593Z,50.08
2018-03-01T02:31:53.785Z,54.20
2018-03-01T02:34:22.739Z,53.53
2018-03-01T02:36:50.926Z,51.85
2018-03-01T02:39:19.146Z,45.97
2018-03-01T02:41:48.111Z,45.90
2018-03-01T02:44:16.303Z,54.05
2018-03-01T02:46:45.258Z,42.42
2018-03-01T02:49:13.446Z,46.40
2018-03-01T02:51:41.648Z,47.03
2018-03-01T02:54:10.591Z,46.15
2018-03-01T02:56:39.596Z,47.58
2018-03-01T02:59:07.806Z,47.50
2018-03-01T03:01:36.752Z,50.38
2018-03-01T03:04:04.948Z,53.55
2018-03-01T03:06:33.130Z,53.20
2018-03-01T03:09:01.315Z,45.03
2018-03-01T03:11:30.299Z,51.08
2018-03-01T03:13:58.489Z,48.65
2018-03-01T03:16:27.452Z,50.88
2018-03-01T03:18:55.654Z,54.22
2018-03-01T03:21:24.623Z,49.00
2018-03-01T03:23:52.810Z,56.65
2018-03-01T03:26:21.027Z,50.78
2018-03-01T03:28:49.216Z,64.95
2018-03-01T03:31:17.410Z,50.28
2018-03-01T03:33:45.596Z,58.85
2018-03-01T03:36:13.784Z,65.40
2018-03-01T03:38:41.979Z,50.60
2018-03-01T03:41:10.953Z,53.10
2018-03-01T03:43:39.144Z,48.58
2018-03-01T03:46:07.369Z,53.30
2018-03-01T03:48:35.560Z,47.72
2018-03-01T03:51:03.755Z,52.33
2018-03-01T03:53:31.967Z,49.10
2018-03-01T03:56:00.162Z,53.97
2018-03-01T03:58:28.349Z,43.13
2018-03-01T04:00:56.530Z,47.70
2018-03-01T04:03:24.711Z,50.53
2018-03-01T04:05:52.930Z,58.60
2018-03-01T04:08:21.114Z,64.87
2018-03-01T04:10:49.306Z,59.00
2018-03-01T04:13:17.495Z,56.92
2018-03-01T04:15:45.683Z,49.63
2018-03-01T04:18:13.898Z,66.30
2018-03-01T04:20:42.855Z,47.75
2018-03-01T04:23:11.086Z,44.65
2018-03-01T04:25:39.274Z,49.05
2018-03-01T04:28:07.468Z,47.28
2018-03-01T04:30:35.664Z,45.65
2018-03-01T04:33:03.850Z,48.03
2018-03-01T04:35:32.039Z,47.70
2018-03-01T04:38:00.994Z,47.35
2018-03-01T04:40:29.202Z,46.15
2018-03-01T04:42:58.158Z,49.25
2018-03-01T04:45:26.361Z,50.28
2018-03-01T04:47:55.319Z,36.92
2018-03-01T04:50:23.514Z,56.22
2018-03-01T04:52:51.709Z,42.08
2018-03-01T04:55:20.660Z,41.20
2018-03-01T04:57:49.622Z,54.30
2018-03-01T05:00:17.831Z,46.80
2018-03-01T05:02:46.013Z,46.80
2018-03-01T05:05:14.217Z,45.92
2018-03-01T05:07:43.183Z,53.63
2018-03-01T05:10:11.388Z,45.80
2018-03-01T05:12:39.659Z,51.45
2018-03-01T05:15:08.617Z,66.15
2018-03-01T05:17:36.798Z,62.78
2018-03-01T05:20:05.002Z,57.20
2018-03-01T05:22:33.987Z,58.30
2018-03-01T05:25:02.166Z,65.82
2018-03-01T05:27:30.355Z,55.33
2018-03-01T05:29:59.320Z,54.70
2018-03-01T05:32:27.509Z,51.85
2018-03-01T05:34:55.754Z,53.42
2018-03-01T05:37:23.992Z,61.00
2018-03-01T05:39:52.193Z,52.70
2018-03-01T05:42:20.373Z,71.70
2018-03-01T05:44:48.563Z,56.53
2018-03-01T05:47:16.750Z,53.60
2018-03-01T05:49:44.944Z,60.08
2018-03-01T05:52:13.909Z,53.67
2018-03-01T05:54:42.110Z,51.40
2018-03-01T05:57:11.100Z,57.78
2018-03-01T05:59:39.398Z,71.28
2018-03-01T06:02:07.667Z,59.58
2018-03-01T06:04:36.656Z,61.45
2018-03-01T06:07:05.638Z,51.75
2018-03-01T06:09:33.859Z,60.12
2018-03-01T06:12:02.089Z,55.22
2018-03-01T06:14:30.278Z,49.70
2018-03-01T06:16:59.237Z,57.78
2018-03-01T06:19:27.450Z,53.87
2018-03-01T06:21:56.414Z,47.67
2018-03-01T06:24:24.598Z,58.10
2018-03-01T06:26:52.787Z,55.85
2018-03-01T06:29:21.744Z,54.00
2018-03-01T06:31:49.917Z,51.58
2018-03-01T06:34:18.103Z,54.95
2018-03-01T06:36:46.290Z,54.15
2018-03-01T06:39:14.486Z,52.70
2018-03-01T06:41:43.447Z,51.85
2018-03-01T06:44:12.413Z,60.47
2018-03-01T06:46:40.688Z,57.75
2018-03-01T06:49:08.932Z,58.87
2018-03-01T06:51:37.878Z,50.00
2018-03-01T06:54:06.061Z,65.57
2018-03-01T06:56:34.269Z,62.00
2018-03-01T06:59:03.251Z,69.12
2018-03-01T07:01:32.210Z,63.00
2018-03-01T07:04:00.434Z,71.62
2018-03-01T07:06:29.394Z,61.35
2018-03-01T07:08:57.596Z,52.38
2018-03-01T07:11:26.574Z,66.00
2018-03-01T07:13:54.803Z,61.00
2018-03-01T07:16:23.024Z,66.95
2018-03-01T07:18:51.237Z,63.38
2018-03-01T07:21:19.447Z,57.50
2018-03-01T07:23:47.664Z,62.03
2018-03-01T07:26:16.701Z,59.33
2018-03-01T07:28:44.903Z,68.55
2018-03-01T07:31:13.126Z,57.05
2018-03-01T07:33:41.302Z,61.03
2018-03-01T07:36:09.479Z,55.65
2018-03-01T07:38:37.701Z,64.85
2018-03-01T07:41:05.877Z,60.95
2018-03-01T07:43:34.066Z,52.25
2018-03-01T07:46:02.272Z,55.03
2018-03-01T07:48:30.446Z,57.15
2018-03-01T07:50:58.648Z,55.10
2018-03-01T07:53:26.868Z,61.17
2018-03-01T07:55:55.055Z,52.53
2018-03-01T07:58:23.993Z,61.58
2018-03-01T08:00:52.167Z,56.15
2018-03-01T08:03:20.338Z,57.13
2018-03-01T08:05:48.517Z,61.53
2018-03-01T08:08:16.696Z,55.22
2018-03-01T08:10:44.873Z,59.47
2018-03-01T08:13:13.058Z,58.33
2018-03-01T08:15:41.236Z,56.55
2018-03-01T08:18:09.402Z,59.47
2018-03-01T08:20:37.592Z,61.13
2018-03-01T08:23:05.791Z,55.10
2018-03-01T08:25:34.744Z,50.10
2018-03-01T08:28:02.926Z,55.42
2018-03-01T08:30:31.103Z,63.28
2018-03-01T08:33:00.174Z,57.47
2018-03-01T08:35:28.372Z,51.65
2018-03-01T08:37:56.557Z,60.35
2018-03-01T08:40:24.746Z,54.60
2018-03-01T08:42:52.982Z,57.08
2018-03-01T08:45:21.893Z,53.65
2018-03-01T08:47:50.086Z,60.28
2018-03-01T08:50:18.292Z,66.28
2018-03-01T08:52:46.486Z,60.60
2018-03-01T08:55:14.673Z,56.30
2018-03-01T08:57:42.864Z,56.20
2018-03-01T09:00:11.057Z,52.10
2018-03-01T09:02:39.248Z,61.28
2018-03-01T09:05:08.209Z,63.55
2018-03-01T09:07:36.383Z,59.88
2018-03-01T09:10:04.560Z,66.97
2018-03-01T09:12:32.781Z,55.03
2018-03-01T09:15:00.985Z,52.62
2018-03-01T09:17:29.175Z,69.25
2018-03-01T09:19:57.371Z,64.18
2018-03-01T09:22:25.556Z,65.85
2018-03-01T09:24:53.854Z,63.08
2018-03-01T09:27:22.033Z,74.37
2018-03-01T09:29:50.225Z,55.40
2018-03-01T09:32:18.407Z,63.28
2018-03-01T09:34:46.582Z,59.25
2018-03-01T09:37:14.758Z,57.72
2018-03-01T09:39:42.947Z,59.88
2018-03-01T09:42:11.119Z,68.78
2018-03-01T09:44:39.307Z,59.80
2018-03-01T09:47:07.503Z,56.45
2018-03-01T09:49:35.697Z,58.42
2018-03-01T09:52:04.663Z,51.70
2018-03-01T09:54:32.857Z,57.25
2018-03-01T09:57:01.824Z,65.60
2018-03-01T09:59:30.020Z,62.70
2018-03-01T10:01:58.974Z,65.03
2018-03-01T10:04:27.155Z,72.03
2018-03-01T10:06:55.340Z,72.97
2018-03-01T10:09:23.532Z,73.05
2018-03-01T10:11:52.504Z,76.65
2018-03-01T10:14:20.689Z,74.90
2018-03-01T10:16:49.022Z,82.10
2018-03-01T10:19:17.219Z,82.70
2018-03-01T10:21:45.420Z,84.35
2018-03-01T10:24:13.628Z,75.45
2018-03-01T10:26:41.818Z,76.00
2018-03-01T10:29:10.008Z,86.57
2018-03-01T10:31:38.208Z,82.00
2018-03-01T10:34:06.458Z,84.85
2018-03-01T10:36:34.646Z,92.55
2018-03-01T10:39:02.856Z,80.12
2018-03-01T10:41:31.049Z,80.97
2018-03-01T10:43:59.303Z,79.50
2018-03-01T10:46:27.470Z,74.57
2018-03-01T10:48:55.644Z,87.65
2018-03-01T10:51:23.893Z,88.93
2018-03-01T10:53:52.123Z,76.72
2018-03-01T10:56:20.302Z,82.25
2018-03-01T10:58:49.290Z,87.50
2018-03-01T11:01:19.016Z,93.25
2018-03-01T11:03:47.222Z,82.22
2018-03-01T11:06:15.474Z,86.78
2018-03-01T11:08:43.668Z,82.10
2018-03-01T11:11:11.874Z,74.03
2018-03-01T11:13:40.228Z,84.95
2018-03-01T11:16:08.409Z,92.25
2018-03-01T11:18:36.633Z,86.12
2018-03-01T11:21:05.621Z,90.87
2018-03-01T11:23:34.593Z,86.82
2018-03-01T11:26:02.790Z,91.63
2018-03-01T11:28:31.743Z,84.90
2018-03-01T11:30:59.922Z,90.18
2018-03-01T11:33:28.106Z,87.78
2018-03-01T11:35:56.326Z,88.57
2018-03-01T11:38:24.520Z,92.97
2018-03-01T11:40:52.754Z,85.40
2018-03-01T11:43:21.721Z,85.03
2018-03-01T11:45:49.896Z,85.53
2018-03-01T11:48:18.104Z,86.65
2018-03-01T11:50:46.316Z,88.95
2018-03-01T11:53:14.559Z,89.82
2018-03-01T11:55:42.744Z,84.50
2018-03-01T11:58:10.927Z,88.00
2018-03-01T12:00:39.101Z,82.07
2018-03-01T12:03:07.275Z,76.77
2018-03-01T12:05:35.464Z,78.23
2018-03-01T12:08:03.639Z,81.37
2018-03-01T12:10:31.835Z,78.40
2018-03-01T12:13:00.036Z,79.43
2018-03-01T12:15:28.244Z,79.73
2018-03-01T12:17:56.435Z,73.53
2018-03-01T12:20:24.602Z,79.70
2018-03-01T12:22:52.769Z,76.00
2018-03-01T12:25:20.944Z,72.77
2018-03-01T12:27:49.122Z,74.13
2018-03-01T12:30:17.307Z,65.70
2018-03-01T12:32:45.486Z,73.97
2018-03-01T12:35:13.697Z,78.10
2018-03-01T12:37:41.884Z,77.33
2018-03-01T12:40:10.843Z,71.90
2018-03-01T12:42:39.030Z,65.73
2018-03-01T12:45:07.238Z,63.75
2018-03-01T12:47:36.208Z,72.45
2018-03-01T12:50:04.428Z,82.15
2018-03-01T12:52:32.984Z,69.05
2018-03-01T12:55:01.953Z,68.85
2018-03-01T12:57:30.165Z,75.97
2018-03-01T12:59:58.377Z,72.78
2018-03-01T13:02:26.577Z,74.75
2018-03-01T13:04:54.776Z,68.15
2018-03-01T13:07:23.746Z,69.05
2018-03-01T13:09:51.968Z,62.67
2018-03-01T13:12:20.170Z,68.87
2018-03-01T13:14:48.367Z,58.28
2018-03-01T13:17:16.578Z,64.95
2018-03-01T13:19:45.536Z,71.63
2018-03-01T13:22:13.725Z,68.73
2018-03-01T13:24:41.918Z,69.57
2018-03-01T13:27:10.901Z,76.43
2018-03-01T13:29:39.134Z,74.80
2018-03-01T13:32:09.739Z,64.67
2018-03-01T13:34:37.922Z,71.73
2018-03-01T13:37:06.112Z,66.80
2018-03-01T13:39:34.323Z,77.17
2018-03-01T13:42:03.003Z,63.33
2018-03-01T13:44:31.199Z,68.70
2018-03-01T13:46:59.406Z,66.97
2018-03-01T13:49:27.582Z,70.90
2018-03-01T13:51:55.769Z,71.60
2018-03-01T13:54:23.972Z,70.67
2018-03-01T13:56:52.155Z,74.00
2018-03-01T13:59:20.368Z,73.62
2018-03-01T14:01:48.579Z,72.12
2018-03-01T14:04:17.541Z,64.12
2018-03-01T14:07:01.460Z,74.80
2018-03-01T14:09:30.465Z,95.68
2018-03-01T14:11:59.438Z,80.03
2018-03-01T14:14:33.121Z,69.57
2018-03-01T14:17:02.844Z,84.87
2018-03-01T14:19:41.781Z,75.12
2018-03-01T14:22:13.911Z,75.47
2018-03-01T14:24:42.190Z,80.05
2018-03-01T14:27:10.382Z,73.50
2018-03-01T14:29:38.955Z,79.87
2018-03-01T14:32:07.369Z,80.97
2018-03-01T14:34:35.549Z,69.50
2018-03-01T14:37:04.505Z,73.15
2018-03-01T14:39:32.692Z,67.65
2018-03-01T14:42:00.866Z,64.78
2018-03-01T14:44:29.079Z,67.87
2018-03-01T14:46:57.249Z,63.85
2018-03-01T14:49:26.206Z,69.43
2018-03-01T14:51:54.409Z,76.50
2018-03-01T14:54:22.587Z,63.05
2018-03-01T14:56:51.550Z,73.82
2018-03-01T14:59:19.727Z,70.75
2018-03-01T15:01:47.930Z,61.65
2018-03-01T15:04:16.873Z,65.87
2018-03-01T15:06:45.061Z,68.45
2018-03-01T15:09:13.249Z,69.43
2018-03-01T15:11:41.444Z,71.93
2018-03-01T15:14:10.399Z,65.65
2018-03-01T15:16:38.583Z,67.22
2018-03-01T15:19:06.776Z,69.20
2018-03-01T15:21:34.955Z,81.43
2018-03-01T15:24:03.157Z,81.20
2018-03-01T15:26:32.096Z,76.53
2018-03-01T15:29:01.075Z,77.12
2018-03-01T15:31:29.254Z,71.70
2018-03-01T15:33:57.436Z,71.10
2018-03-01T15:36:25.642Z,78.62
2018-03-01T15:38:53.841Z,70.85
2018-03-01T15:41:22.045Z,77.55
2018-03-01T15:43:50.239Z,73.57
2018-03-01T15:46:18.428Z,69.03
2018-03-01T15:48:46.629Z,79.97
2018-03-01T15:51:15.575Z,77.57
2018-03-01T15:53:43.767Z,70.93
2018-03-01T15:56:11.949Z,72.82
2018-03-01T15:58:41.676Z,79.37
2018-03-01T16:01:10.627Z,76.00
2018-03-01T16:03:38.814Z,68.90
2018-03-01T16:06:07.011Z,80.38
2018-03-01T16:08:35.205Z,76.47
2018-03-01T16:11:04.151Z,66.95
2018-03-01T16:13:32.352Z,76.28
2018-03-01T16:16:01.319Z,90.60
2018-03-01T16:18:29.504Z,78.10
2018-03-01T16:20:57.680Z,82.30
2018-03-01T16:23:25.850Z,81.07
2018-03-01T16:25:54.026Z,89.80
2018-03-01T16:28:22.325Z,89.00
2018-03-01T16:30:50.514Z,86.40
2018-03-01T16:33:19.456Z,75.62
2018-03-01T16:35:47.638Z,79.97
2018-03-01T16:38:16.615Z,78.65
2018-03-01T16:40:44.817Z,69.10
2018-03-01T16:43:13.030Z,87.72
2018-03-01T16:45:41.995Z,80.03
2018-03-01T16:48:10.182Z,79.53
2018-03-01T16:50:39.150Z,74.50
2018-03-01T16:53:07.355Z,72.87
2018-03-01T16:55:36.316Z,86.40
2018-03-01T16:58:04.568Z,94.70
2018-03-01T17:00:32.746Z,78.30
2018-03-01T17:03:00.928Z,76.60
2018-03-01T17:05:29.106Z,78.68
2018-03-01T17:07:57.278Z,87.97
2018-03-01T17:10:25.467Z,79.62
2018-03-01T17:12:53.686Z,86.45
2018-03-01T17:15:22.642Z,96.78
2018-03-01T17:17:50.867Z,89.80
2018-03-01T17:20:19.056Z,87.68
2018-03-01T17:22:47.255Z,80.45
2018-03-01T17:25:15.433Z,90.70
2018-03-01T17:27:43.603Z,95.12
2018-03-01T17:30:11.772Z,84.43
2018-03-01T17:32:39.950Z,88.50
2018-03-01T17:35:08.134Z,85.57
2018-03-01T17:37:36.314Z,101.22
2018-03-01T17:40:04.486Z,90.05
2018-03-01T17:42:32.668Z,90.57
2018-03-01T17:45:00.862Z,86.30
2018-03-01T17:47:29.814Z,82.75
2018-03-01T17:49:58.016Z,84.45
2018-03-01T17:52:26.202Z,91.70
2018-03-01T17:54:55.248Z,93.32
2018-03-01T17:57:23.442Z,92.05
2018-03-01T17:59:51.655Z,91.63
2018-03-01T18:02:20.642Z,79.95
2018-03-01T18:04:49.588Z,83.40
2018-03-01T18:07:17.807Z,94.22
2018-03-01T18:09:46.903Z,93.28
2018-03-01T18:12:15.884Z,98.07
2018-03-01T18:14:44.078Z,109.47
2018-03-01T18:17:13.026Z,112.32
2018-03-01T18:19:41.210Z,107.25
2018-03-01T18:22:09.393Z,100.30
2018-03-01T18:24:37.601Z,103.85
2018-03-01T18:27:06.553Z,99.00
2018-03-01T18:29:34.733Z,100.87
2018-03-01T18:32:02.916Z,102.40
2018-03-01T18:34:31.112Z,107.53
2018-03-01T18:37:00.063Z,109.85
2018-03-01T18:39:28.249Z,96.75
2018-03-01T18:41:56.448Z,94.62
2018-03-01T18:44:25.402Z,101.12
2018-03-01T18:46:53.590Z,106.93
2018-03-01T18:49:21.774Z,98.15
2018-03-01T18:51:50.008Z,103.80
2018-03-01T18:54:18.192Z,102.10
2018-03-01T18:56:46.396Z,106.70
2018-03-01T18:59:14.580Z,105.45
2018-03-01T19:01:42.772Z,104.90
2018-03-01T19:04:11.717Z,102.43
2018-03-01T19:06:39.895Z,107.57
2018-03-01T19:09:08.077Z,182.18
2018-03-01T19:11:36.268Z,118.20
2018-03-01T19:14:04.457Z,118.75
2018-03-01T19:16:33.448Z,114.30
2018-03-01T19:19:01.650Z,114.78
2018-03-01T19:21:29.865Z,117.18
2018-03-01T19:23:58.090Z,99.87
2018-03-01T19:26:26.291Z,114.30
2018-03-01T19:28:54.505Z,113.15
2018-03-01T19:31:22.684Z,125.85
2018-03-01T19:33:50.866Z,112.72
2018-03-01T19:36:19.063Z,117.87
2018-03-01T19:38:48.038Z,118.15
2018-03-01T19:41:16.226Z,113.78
2018-03-01T19:43:45.190Z,115.07
2018-03-01T19:46:13.392Z,117.18
2018-03-01T19:48:42.351Z,113.80
2018-03-01T19:51:10.560Z,112.78
2018-03-01T19:53:39.513Z,114.35
2018-03-01T19:56:07.698Z,101.38
2018-03-01T19:58:35.902Z,132.50
2018-03-01T20:01:04.861Z,117.30
2018-03-01T20:03:33.817Z,125.97
2018-03-01T20:06:01.995Z,117.37
2018-03-01T20:08:30.184Z,115.65
2018-03-01T20:10:58.406Z,113.28
2018-03-01T20:13:26.627Z,115.70
2018-03-01T20:15:54.851Z,122.50
2018-03-01T20:18:23.047Z,120.87
2018-03-01T20:20:52.010Z,122.00
2018-03-01T20:23:20.223Z,123.03
2018-03-01T20:25:49.223Z,116.28
2018-03-01T20:28:17.410Z,144.00
2018-03-01T20:30:45.601Z,135.12
2018-03-01T20:33:13.792Z,111.22
2018-03-01T20:35:42.929Z,132.68
2018-03-01T20:38:11.094Z,127.05
2018-03-01T20:40:40.067Z,113.10
2018-03-01T20:43:08.241Z,109.97
2018-03-01T20:45:36.427Z,109.78
2018-03-01T20:48:04.622Z,134.70
2018-03-01T20:50:33.576Z,122.05
2018-03-01T20:53:01.767Z,121.20
2018-03-01T20:55:29.956Z,123.85
2018-03-01T20:57:58.920Z,127.50
2018-03-01T21:00:27.091Z,121.35
2018-03-01T21:02:55.279Z,120.87
2018-03-01T21:05:23.477Z,130.90
2018-03-01T21:07:52.436Z,111.53
2018-03-01T21:10:20.639Z,124.40
2018-03-01T21:12:49.652Z,142.05
2018-03-01T21:15:18.615Z,124.72
2018-03-01T21:17:46.804Z,123.40
2018-03-01T21:20:15.847Z,122.28
2018-03-01T21:22:44.176Z,132.52
2018-03-01T21:25:13.130Z,123.68
2018-03-01T21:27:41.318Z,125.10
2018-03-01T21:30:09.530Z,117.70
2018-03-01T21:32:38.476Z,116.37
2018-03-01T21:35:06.727Z,123.43
2018-03-01T21:37:34.929Z,123.10
2018-03-01T21:40:03.106Z,134.70
2018-03-01T21:42:33.211Z,131.85
2018-03-01T21:45:01.420Z,111.35
2018-03-01T21:47:29.614Z,126.82
2018-03-01T21:49:58.667Z,128.35
2018-03-01T21:52:26.905Z,128.80
2018-03-01T21:54:55.149Z,126.87
2018-03-01T21:57:24.113Z,125.80
2018-03-01T21:59:52.315Z,135.88
2018-03-01T22:02:20.524Z,119.15
2018-03-01T22:04:48.698Z,138.50
2018-03-01T22:07:16.895Z,131.43
2018-03-01T22:09:45.080Z,120.20
2018-03-01T22:12:13.348Z,121.25
2018-03-01T22:14:41.535Z,114.75
2018-03-01T22:17:09.711Z,124.00
2018-03-01T22:19:37.889Z,126.18
2018-03-01T22:22:06.077Z,128.85
2018-03-01T22:24:34.267Z,130.20
2018-03-01T22:27:02.448Z,125.18
2018-03-01T22:29:31.390Z,121.50
2018-03-01T22:31:59.604Z,119.97
2018-03-01T22:34:27.814Z,125.07
2018-03-01T22:36:56.014Z,125.55
2018-03-01T22:39:24.207Z,127.30
2018-03-01T22:41:52.393Z,133.45
2018-03-01T22:44:20.588Z,118.43
2018-03-01T22:46:49.539Z,125.05
2018-03-01T22:49:17.708Z,128.43
2018-03-01T22:51:45.892Z,133.30
2018-03-01T22:54:14.070Z,123.78
2018-03-01T22:56:42.268Z,135.10
2018-03-01T22:59:10.520Z,127.05
2018-03-01T23:01:38.729Z,132.15
2018-03-01T23:04:06.953Z,123.15
2018-03-01T23:06:35.134Z,126.87
2018-03-01T23:09:03.337Z,134.12
2018-03-01T23:11:31.522Z,136.18
2018-03-01T23:14:00.497Z,120.57
2018-03-01T23:16:28.671Z,142.27
2018-03-01T23:18:56.909Z,139.85
2018-03-01T23:21:25.088Z,122.32
2018-03-01T23:23:53.278Z,127.28
2018-03-01T23:26:21.461Z,134.20
2018-03-01T23:28:49.663Z,111.82
2018-03-01T23:31:17.861Z,122.10
2018-03-01T23:33:46.822Z,123.20
2018-03-01T23:36:15.013Z,135.43
2018-03-01T23:38:43.222Z,117.57
2018-03-01T23:41:11.415Z,122.28
2018-03-01T23:43:39.602Z,117.82
2018-03-01T23:46:07.792Z,121.60
2018-03-01T23:48:35.968Z,114.30
2018-03-01T23:51:04.909Z,124.40
2018-03-01T23:53:33.143Z,124.90
2018-03-01T23:56:01.331Z,136.25
2018-03-01T23:58:30.295Z,134.50
